createdAt,value
2022-12-25T05:42:11.697Z,5.86
2022-12-25T05:44:58.557Z,5.83
2022-12-25T05:47:45.415Z,5.83
2022-12-25T05:50:32.264Z,5.85
2022-12-25T05:53:24.066Z,6.01
2022-12-25T05:56:11.384Z,5.96
2022-12-25T05:58:58.291Z,6.04
2022-12-25T06:01:46.443Z,6.03
2022-12-25T06:04:34.552Z,6.18
2022-12-25T06:07:21.491Z,6.26
2022-12-25T06:09:48.174Z,6.34
2022-12-25T06:12:14.776Z,6.42
2022-12-25T06:14:42.207Z,6.50
2022-12-25T06:17:09.293Z,6.43
2022-12-25T06:19:35.761Z,6.56
2022-12-25T06:22:02.248Z,6.74
2022-12-25T06:24:28.965Z,6.64
2022-12-25T06:26:55.551Z,6.60
2022-12-25T06:29:22.018Z,6.87
2022-12-25T06:31:48.581Z,6.98
2022-12-25T06:34:16.454Z,6.88
2022-12-25T06:36:43.355Z,6.97
2022-12-25T06:39:09.994Z,6.90
2022-12-25T06:41:36.511Z,6.76
2022-12-25T06:44:03.039Z,6.73
2022-12-25T06:46:30.489Z,6.88
2022-12-25T06:48:58.608Z,7.00
2022-12-25T06:51:28.196Z,7.06
2022-12-25T06:53:55.736Z,6.90
2022-12-25T06:56:24.632Z,6.74
2022-12-25T06:58:54.095Z,6.72
2022-12-25T07:01:28.941Z,6.76
2022-12-25T07:04:01.329Z,6.80
2022-12-25T07:06:28.477Z,6.78
2022-12-25T07:08:55.023Z,7.00
2022-12-25T07:11:22.046Z,7.13
2022-12-25T07:13:49.008Z,6.95
2022-12-25T07:16:16.005Z,7.30
2022-12-25T07:18:42.810Z,6.88
2022-12-25T07:21:15.110Z,6.87
2022-12-25T07:23:42.794Z,6.93
2022-12-25T07:26:10.501Z,7.03
2022-12-25T07:28:37.091Z,7.13
2022-12-25T07:31:10.775Z,7.29
2022-12-25T07:33:37.492Z,7.08
2022-12-25T07:36:05.396Z,7.08
2022-12-25T07:38:32.182Z,7.16
2022-12-25T07:40:58.674Z,7.17
2022-12-25T07:43:25.312Z,7.23
2022-12-25T07:45:56.928Z,7.18
2022-12-25T07:48:23.449Z,7.09
2022-12-25T07:51:03.091Z,6.96
2022-12-25T07:53:29.788Z,7.12
2022-12-25T07:56:04.117Z,7.27
2022-12-25T07:58:31.005Z,7.27
2022-12-25T08:01:03.879Z,7.34
2022-12-25T08:03:31.336Z,7.30
2022-12-25T08:06:02.251Z,7.41
2022-12-25T08:08:29.022Z,7.51
2022-12-25T08:10:55.603Z,7.70
2022-12-25T08:13:22.231Z,7.63
2022-12-25T08:15:48.966Z,7.82
2022-12-25T08:18:15.696Z,7.80
2022-12-25T08:20:42.291Z,7.71
2022-12-25T08:23:08.898Z,7.69
2022-12-25T08:25:35.382Z,7.62
2022-12-25T08:28:01.951Z,7.63
2022-12-25T08:30:28.627Z,7.70
2022-12-25T08:32:55.244Z,7.77
2022-12-25T08:35:21.832Z,7.97
2022-12-25T08:37:48.369Z,8.28
2022-12-25T08:40:15.001Z,8.57
2022-12-25T08:42:41.552Z,8.71
2022-12-25T08:45:08.693Z,8.79
2022-12-25T08:47:35.279Z,8.64
2022-12-25T08:50:01.770Z,8.96
2022-12-25T08:52:28.940Z,9.09
2022-12-25T08:54:56.222Z,9.01
2022-12-25T08:57:22.761Z,9.20
2022-12-25T08:59:49.228Z,9.09
2022-12-25T09:02:17.255Z,8.78
2022-12-25T09:04:47.020Z,8.59
2022-12-25T09:07:13.730Z,8.59
2022-12-25T09:09:40.302Z,8.66
2022-12-25T09:12:06.977Z,8.80
2022-12-25T09:14:33.459Z,9.10
2022-12-25T09:17:00.017Z,9.25
2022-12-25T09:19:26.482Z,8.92
2022-12-25T09:21:53.725Z,9.04
2022-12-25T09:24:20.874Z,9.20
2022-12-25T09:26:47.391Z,9.08
2022-12-25T09:29:14.723Z,8.79
2022-12-25T09:31:41.277Z,8.83
2022-12-25T09:34:12.594Z,8.83
2022-12-25T09:36:43.596Z,8.79
2022-12-25T09:39:10.093Z,8.54
2022-12-25T09:41:51.818Z,8.58
2022-12-25T09:44:22.552Z,8.55
2022-12-25T09:46:54.150Z,8.57
2022-12-25T09:49:43.010Z,8.62
2022-12-25T09:52:20.131Z,8.78
2022-12-25T09:55:19.640Z,9.02
2022-12-25T09:57:51.511Z,9.11
2022-12-25T10:00:20.721Z,9.06
2022-12-25T10:03:06.136Z,9.10
2022-12-25T10:05:52.662Z,9.24
2022-12-25T10:09:00.600Z,9.50
2022-12-25T10:11:45.693Z,9.44
2022-12-25T10:14:30.937Z,9.97
2022-12-25T10:17:25.320Z,10.20
2022-12-25T10:20:06.442Z,10.15
2022-12-25T10:22:40.694Z,9.97
2022-12-25T10:25:16.436Z,9.84
2022-12-25T10:27:43.577Z,9.52
2022-12-25T10:30:22.118Z,9.64
2022-12-25T10:32:50.058Z,9.57
2022-12-25T10:35:22.382Z,9.66
2022-12-25T10:37:58.762Z,9.54
2022-12-25T10:40:37.837Z,9.55
2022-12-25T10:43:12.398Z,9.99
2022-12-25T10:45:47.498Z,10.58
2022-12-25T10:48:24.121Z,11.04
2022-12-25T10:50:51.292Z,10.77
2022-12-25T10:53:28.648Z,10.80
2022-12-25T10:55:59.345Z,10.93
2022-12-25T10:58:26.645Z,10.57
2022-12-25T11:00:59.944Z,10.62
2022-12-25T11:03:31.417Z,10.67
2022-12-25T11:05:58.243Z,10.74
2022-12-25T11:08:27.557Z,10.73
2022-12-25T11:10:58.412Z,10.63
2022-12-25T11:13:27.848Z,10.68
2022-12-25T11:16:06.469Z,10.82
2022-12-25T11:18:44.436Z,10.57
2022-12-25T11:21:22.212Z,11.00
2022-12-25T11:23:55.485Z,11.01
2022-12-25T11:26:22.623Z,10.75
2022-12-25T11:28:52.094Z,10.86
2022-12-25T11:31:40.792Z,11.09
2022-12-25T11:34:32.801Z,11.10
2022-12-25T11:37:02.137Z,11.26
2022-12-25T11:39:30.170Z,10.99
2022-12-25T11:42:04.483Z,10.86
2022-12-25T11:44:54.626Z,11.01
2022-12-25T11:47:40.480Z,11.33
2022-12-25T11:50:13.825Z,11.08
2022-12-25T11:52:44.507Z,11.49
2022-12-25T11:55:20.306Z,11.40
2022-12-25T11:57:53.505Z,11.26
2022-12-25T12:00:20.819Z,11.31
2022-12-25T12:02:55.020Z,11.35
2022-12-25T12:05:35.469Z,11.28
2022-12-25T12:08:05.324Z,11.38
2022-12-25T12:10:49.979Z,11.21
2022-12-25T12:13:36.551Z,10.93
2022-12-25T12:16:05.813Z,10.69
2022-12-25T12:18:33.471Z,10.78
2022-12-25T12:21:18.276Z,10.95
2022-12-25T12:23:56.753Z,11.25
2022-12-25T12:26:28.815Z,11.43
2022-12-25T12:28:58.873Z,11.46
2022-12-25T12:31:36.198Z,11.48
2022-12-25T12:34:03.349Z,11.69
2022-12-25T12:36:36.034Z,12.85
2022-12-25T12:39:05.726Z,13.18
2022-12-25T12:41:49.149Z,12.56
2022-12-25T12:44:17.555Z,12.14
2022-12-25T12:47:27.781Z,11.82
2022-12-25T12:49:59.244Z,11.83
2022-12-25T12:52:35.305Z,11.68
2022-12-25T12:55:08.955Z,11.87
2022-12-25T12:57:39.924Z,11.81
2022-12-25T13:00:15.967Z,11.61
2022-12-25T13:03:26.476Z,11.82
2022-12-25T13:05:58.061Z,11.69
2022-12-25T13:08:27.520Z,11.66
2022-12-25T13:11:15.834Z,11.69
2022-12-25T13:13:45.188Z,11.49
2022-12-25T13:16:36.039Z,11.72
2022-12-25T13:19:12.100Z,11.60
2022-12-25T13:21:38.941Z,11.39
2022-12-25T13:24:18.102Z,11.42
2022-12-25T13:26:44.715Z,11.61
2022-12-25T13:29:28.889Z,11.87
2022-12-25T13:31:56.216Z,11.75
2022-12-25T13:34:31.762Z,11.63
2022-12-25T13:37:08.952Z,11.41
2022-12-25T13:39:38.917Z,11.44
2022-12-25T13:42:08.156Z,11.44
2022-12-25T13:45:08.063Z,11.35
2022-12-25T13:47:40.247Z,11.36
2022-12-25T13:50:28.593Z,11.40
2022-12-25T13:52:57.428Z,11.48
2022-12-25T13:55:28.943Z,11.49
2022-12-25T13:58:02.038Z,11.58
2022-12-25T14:00:45.540Z,11.69
2022-12-25T14:03:21.639Z,11.45
2022-12-25T14:06:00.145Z,11.34
2022-12-25T14:08:30.694Z,11.36
2022-12-25T14:10:58.891Z,11.25
2022-12-25T14:13:28.189Z,11.18
2022-12-25T14:15:56.839Z,11.17
2022-12-25T14:18:24.688Z,11.17
2022-12-25T14:20:59.501Z,11.29
2022-12-25T14:23:26.641Z,11.22
2022-12-25T14:25:53.392Z,11.23
2022-12-25T14:28:24.851Z,11.14
2022-12-25T14:30:51.720Z,11.17
2022-12-25T14:33:23.017Z,10.97
2022-12-25T14:35:51.333Z,11.01
2022-12-25T14:38:30.172Z,10.96
2022-12-25T14:41:02.241Z,10.99
2022-12-25T14:43:30.229Z,10.90
2022-12-25T14:46:02.718Z,10.92
2022-12-25T14:48:31.535Z,10.81
2022-12-25T14:51:07.143Z,10.74
2022-12-25T14:53:41.109Z,10.70
2022-12-25T14:56:09.393Z,10.81
2022-12-25T14:58:43.299Z,10.78
2022-12-25T15:01:22.079Z,10.63
2022-12-25T15:03:49.310Z,10.63
2022-12-25T15:06:22.431Z,10.57
2022-12-25T15:09:01.311Z,10.65
2022-12-25T15:11:28.809Z,10.61
2022-12-25T15:13:55.525Z,10.54
2022-12-25T15:16:25.741Z,10.63
2022-12-25T15:18:53.558Z,10.53
2022-12-25T15:21:30.625Z,10.56
2022-12-25T15:23:58.876Z,10.54
2022-12-25T15:26:27.261Z,10.46
2022-12-25T15:28:53.767Z,10.49
2022-12-25T15:31:22.315Z,10.40
2022-12-25T15:33:49.561Z,10.39
2022-12-25T15:36:16.052Z,10.47
2022-12-25T15:38:42.575Z,10.49
2022-12-25T15:41:53.454Z,10.40
2022-12-25T15:44:20.763Z,10.36
2022-12-25T15:46:47.680Z,10.31
2022-12-25T15:49:15.189Z,10.33
2022-12-25T15:51:42.826Z,10.35
2022-12-25T15:54:10.358Z,10.32
2022-12-25T15:56:45.044Z,10.21
2022-12-25T15:59:13.600Z,10.18
2022-12-25T16:01:46.081Z,10.20
2022-12-25T16:04:12.679Z,10.18
2022-12-25T16:06:39.149Z,10.16
2022-12-25T16:09:05.898Z,10.08
2022-12-25T16:11:32.389Z,10.13
2022-12-25T16:13:58.858Z,10.07
2022-12-25T16:16:26.080Z,9.95
2022-12-25T16:18:52.643Z,10.00
2022-12-25T16:21:21.003Z,10.00
2022-12-25T16:23:48.006Z,9.92
2022-12-25T16:26:14.558Z,9.87
2022-12-25T16:28:41.171Z,9.85
2022-12-25T16:31:07.815Z,9.82
2022-12-25T16:33:34.398Z,9.80
2022-12-25T16:36:00.863Z,9.70
2022-12-25T16:38:27.329Z,9.78
2022-12-25T16:40:59.999Z,9.75
2022-12-25T16:43:27.241Z,9.64
2022-12-25T16:45:53.830Z,9.70
2022-12-25T16:48:20.363Z,9.69
2022-12-25T16:50:46.863Z,9.77
2022-12-25T16:53:13.361Z,9.77
2022-12-25T16:55:39.904Z,9.80
2022-12-25T16:58:06.661Z,9.75
2022-12-25T17:00:33.324Z,9.80
2022-12-25T17:03:01.021Z,9.85
2022-12-25T17:05:27.726Z,9.89
2022-12-25T17:07:54.247Z,9.86
2022-12-25T17:10:21.367Z,9.86
2022-12-25T17:12:48.021Z,9.71
2022-12-25T17:15:14.599Z,9.71
2022-12-25T17:17:41.668Z,9.70
2022-12-25T17:20:08.776Z,9.71
2022-12-25T17:22:35.266Z,9.73
2022-12-25T17:25:02.014Z,9.70
2022-12-25T17:27:28.517Z,9.72
2022-12-25T17:29:55.022Z,9.59
2022-12-25T17:32:21.593Z,9.67
2022-12-25T17:34:48.108Z,9.62
2022-12-25T17:37:14.566Z,9.62
2022-12-25T17:39:41.069Z,9.46
2022-12-25T17:42:07.672Z,9.64
2022-12-25T17:44:34.184Z,9.56
2022-12-25T17:47:00.849Z,9.60
2022-12-25T17:49:27.470Z,9.62
2022-12-25T17:51:54.144Z,9.46
2022-12-25T17:54:20.674Z,9.63
2022-12-25T17:56:47.931Z,9.46
2022-12-25T17:59:18.493Z,9.54
2022-12-25T18:01:46.781Z,9.54
2022-12-25T18:04:32.262Z,9.51
2022-12-25T18:07:17.593Z,9.47
2022-12-25T18:10:04.766Z,9.55
2022-12-25T18:12:51.560Z,9.46
2022-12-25T18:15:41.733Z,9.28
2022-12-25T18:18:29.026Z,9.53
2022-12-25T18:21:16.008Z,9.53
2022-12-25T18:24:04.995Z,9.51
2022-12-25T18:26:51.848Z,9.51
2022-12-25T18:29:38.670Z,9.47
2022-12-25T18:32:28.113Z,9.50
2022-12-25T18:35:15.382Z,9.36
2022-12-25T18:38:02.211Z,9.46
2022-12-25T18:40:49.063Z,9.43
2022-12-25T18:43:53.051Z,9.44
2022-12-25T18:46:41.890Z,9.44
2022-12-25T18:49:28.712Z,9.48
2022-12-25T18:52:49.352Z,9.39
2022-12-25T18:55:22.302Z,9.39
2022-12-25T18:58:09.111Z,9.37
2022-12-25T19:00:56.047Z,9.34
2022-12-25T19:03:43.207Z,9.20
2022-12-25T19:06:32.671Z,9.22
2022-12-25T19:09:20.194Z,9.32
2022-12-25T19:12:07.065Z,9.33
2022-12-25T19:14:53.977Z,9.31
2022-12-25T19:17:40.867Z,9.22
2022-12-25T19:20:27.706Z,9.24
2022-12-25T19:23:14.568Z,9.27
2022-12-25T19:26:04.053Z,9.19
2022-12-25T19:28:50.832Z,9.20
2022-12-25T19:31:38.181Z,9.19
2022-12-25T19:34:25.255Z,9.24
2022-12-25T19:37:12.112Z,9.29
2022-12-25T19:39:59.016Z,9.22
2022-12-25T19:42:45.841Z,9.27
2022-12-25T19:45:33.207Z,9.27
2022-12-25T19:48:20.085Z,9.29
2022-12-25T19:51:19.026Z,9.30
2022-12-25T19:54:06.678Z,9.23
2022-12-25T19:56:53.545Z,9.25
2022-12-25T19:59:40.367Z,9.24
2022-12-25T20:02:28.388Z,9.12
2022-12-25T20:05:15.486Z,9.14
2022-12-25T20:08:02.626Z,9.14
2022-12-25T20:10:49.725Z,9.03
2022-12-25T20:13:36.711Z,8.99
2022-12-25T20:16:24.859Z,8.93
2022-12-25T20:19:13.369Z,9.03
2022-12-25T20:22:00.235Z,9.09
2022-12-25T20:24:48.956Z,8.87
2022-12-25T20:27:35.767Z,8.97
2022-12-25T20:30:22.918Z,8.85
2022-12-25T20:33:10.104Z,8.89
2022-12-25T20:35:59.988Z,8.90
2022-12-25T20:38:47.229Z,8.86
2022-12-25T20:41:34.079Z,8.86
2022-12-25T20:44:20.905Z,8.76
2022-12-25T20:47:07.776Z,8.82
2022-12-25T20:49:55.374Z,8.64
2022-12-25T20:52:42.195Z,8.72
